Time;durP1;ratioP1;P1;durP2;ratioP2;P2;SDS_P1;SDS_P2;PMS_P1;PMS_P2;Temp;Humidity;BMP_temperature;BMP_pressure;BME280_temperature;BME280_humidity;BME280_pressure;Samples;Min_cycle;Max_cycle;Signal;HPM_P1;HPM_P2
2023/01/24 00:01:25;;;;;;;8.68;4.72;;;;;;;;;;4398634;32;67601;-63
2023/01/24 00:04:11;;;;;;;;;;;;;;;;;;4386716;32;72898;-63
2023/01/24 00:06:57;;;;;;;8.63;4.72;;;;;;;;;;4386776;32;65779;-63
2023/01/24 00:09:44;;;;;;;8.65;4.53;;;;;;;;;;4398346;32;67727;-62
2023/01/24 00:12:30;;;;;;;8.00;4.93;;;;;;;;;;4397763;32;60080;-62
2023/01/24 00:15:17;;;;;;;8.00;4.85;;;;;;;;;;4398904;32;69544;-63
2023/01/24 00:18:03;;;;;;;6.80;4.40;;;;;;;;;;4386673;32;66196;-63
2023/01/24 00:20:50;;;;;;;7.65;4.95;;;;;;;;;;4386059;32;68638;-62
2023/01/24 00:23:39;;;;;;;7.57;4.70;;;;;;;;;;4386641;32;60022;-64
2023/01/24 00:26:26;;;;;;;7.47;4.80;;;;;;;;;;4397057;32;70362;-62
2023/01/24 00:29:12;;;;;;;9.50;5.05;;;;;;;;;;4397097;32;68350;-63
2023/01/24 00:31:59;;;;;;;8.00;4.80;;;;;;;;;;4385722;32;68755;-62
2023/01/24 00:34:46;;;;;;;7.82;4.90;;;;;;;;;;4398219;32;71570;-63
2023/01/24 00:37:32;;;;;;;8.90;5.70;;;;;;;;;;4386144;32;65779;-63
2023/01/24 00:40:19;;;;;;;10.02;5.12;;;;;;;;;;4396895;32;69541;-62
2023/01/24 00:43:06;;;;;;;7.80;4.78;;;;;;;;;;4385823;32;67250;-64
2023/01/24 00:45:53;;;;;;;7.80;4.82;;;;;;;;;;4386358;32;72285;-62
2023/01/24 00:48:41;;;;;;;10.10;5.62;;;;;;;;;;4397522;32;66780;-62
2023/01/24 00:51:28;;;;;;;8.95;5.07;;;;;;;;;;4397578;32;66839;-63
2023/01/24 00:54:14;;;;;;;8.98;5.40;;;;;;;;;;4376312;32;59190;-62
2023/01/24 00:57:01;;;;;;;8.52;5.03;;;;;;;;;;4386319;32;69165;-63
2023/01/24 00:59:48;;;;;;;;;;;;;;;;;;4397057;32;69601;-63
2023/01/24 01:02:34;;;;;;;7.00;4.62;;;;;;;;;;4398979;32;68088;-62
2023/01/24 01:05:22;;;;;;;9.82;5.47;;;;;;;;;;4386316;32;60936;-62
2023/01/24 01:08:08;;;;;;;;;;;;;;;;;;4398465;32;70511;-63
2023/01/24 01:10:55;;;;;;;8.48;5.55;;;;;;;;;;4397462;32;69689;-64
2023/01/24 01:13:42;;;;;;;7.75;5.18;;;;;;;;;;4385766;32;68164;-63
2023/01/24 01:16:29;;;;;;;8.18;5.37;;;;;;;;;;4374804;32;71256;-63
2023/01/24 01:19:15;;;;;;;8.02;5.10;;;;;;;;;;4375504;32;66011;-63
2023/01/24 01:22:02;;;;;;;9.35;5.03;;;;;;;;;;4385871;32;66956;-62
2023/01/24 01:24:48;;;;;;;9.02;5.20;;;;;;;;;;4398189;32;60535;-63
2023/01/24 01:27:35;;;;;;;;;;;;;;;;;;4398592;32;69770;-62
2023/01/24 01:30:22;;;;;;;8.00;4.75;;;;;;;;;;4387102;32;66080;-64
2023/01/24 01:33:09;;;;;;;9.38;5.20;;;;;;;;;;4402364;32;67686;-63
2023/01/24 01:35:55;;;;;;;8.95;5.28;;;;;;;;;;4401054;32;59229;-62
2023/01/24 01:38:42;;;;;;;8.45;4.80;;;;;;;;;;4401887;32;70584;-64
2023/01/24 01:41:28;;;;;;;8.85;4.80;;;;;;;;;;4401784;32;69555;-63
2023/01/24 01:44:40;;;;;;;8.63;5.20;;;;;;;;;;4389828;32;67181;-63
2023/01/24 01:47:31;;;;;;;7.47;5.18;;;;;;;;;;4402486;32;70757;-64
2023/01/24 01:50:28;;;;;;;8.48;5.20;;;;;;;;;;4389606;32;66015;-63
2023/01/24 01:53:15;;;;;;;9.20;5.60;;;;;;;;;;4389385;32;67210;-64
2023/01/24 01:56:20;;;;;;;8.40;5.32;;;;;;;;;;4389591;32;67100;-64
2023/01/24 01:59:22;;;;;;;10.00;6.05;;;;;;;;;;4377866;32;69046;-63
2023/01/24 02:02:09;;;;;;;7.55;5.10;;;;;;;;;;4388444;32;65994;-63
2023/01/24 02:05:00;;;;;;;9.50;6.03;;;;;;;;;;4389076;32;67897;-63
2023/01/24 02:07:59;;;;;;;8.52;5.40;;;;;;;;;;4399262;32;59090;-63
2023/01/24 02:16:01;;;;;;;8.43;5.60;;;;;;;;;;4398679;32;68171;-62
2023/01/24 02:16:58;;;;;;;9.43;6.22;;;;;;;;;;4389685;32;68299;-64
2023/01/24 02:19:47;;;;;;;;;;;;;;;;;;4388007;32;72132;-63
2023/01/24 02:22:45;;;;;;;9.60;5.55;;;;;;;;;;4377035;32;70739;-63
2023/01/24 02:25:47;;;;;;;9.50;5.87;;;;;;;;;;4400187;32;69219;-63
2023/01/24 02:28:35;;;;;;;8.85;5.82;;;;;;;;;;4388540;32;66680;-62
2023/01/24 02:31:22;;;;;;;;;;;;;;;;;;4399308;32;71877;-63
2023/01/24 02:34:09;;;;;;;8.70;5.20;;;;;;;;;;4398616;32;66206;-62
2023/01/24 02:36:58;;;;;;;8.02;4.78;;;;;;;;;;4398293;32;66969;-62
2023/01/24 02:39:48;;;;;;;7.87;5.28;;;;;;;;;;4376876;32;60607;-63
2023/01/24 02:42:37;;;;;;;8.60;5.50;;;;;;;;;;4398191;32;70721;-62
2023/01/24 02:45:29;;;;;;;8.18;5.53;;;;;;;;;;4387823;32;69175;-63
2023/01/24 02:48:15;;;;;;;8.35;5.90;;;;;;;;;;4398459;32;66978;-62
2023/01/24 02:54:07;;;;;;;10.70;5.53;;;;;;;;;;4398036;32;70455;-63
2023/01/24 02:59:59;;;;;;;10.07;6.28;;;;;;;;;;4399317;32;67556;-64
2023/01/24 03:02:46;;;;;;;8.73;5.65;;;;;;;;;;4398290;32;70498;-65
2023/01/24 03:08:39;;;;;;;10.98;6.47;;;;;;;;;;4397400;32;68795;-63
2023/01/24 03:11:26;;;;;;;11.55;6.90;;;;;;;;;;4398118;32;67494;-63
2023/01/24 03:35:53;;;;;;;11.43;6.43;;;;;;;;;;4382821;32;71720;-63
2023/01/24 03:41:46;;;;;;;11.75;7.45;;;;;;;;;;4383428;32;69293;-64
2023/01/24 03:44:33;;;;;;;13.62;7.90;;;;;;;;;;4383566;32;67997;-63
2023/01/24 03:47:19;;;;;;;10.27;6.65;;;;;;;;;;4383421;32;71577;-64
2023/01/24 03:53:13;;;;;;;14.05;7.70;;;;;;;;;;4383317;32;68197;-63
2023/01/24 03:56:02;;;;;;;13.60;8.40;;;;;;;;;;4383851;32;60206;-62
2023/01/24 03:58:53;;;;;;;12.10;8.23;;;;;;;;;;4382426;32;70490;-63
2023/01/24 04:01:40;;;;;;;14.32;8.45;;;;;;;;;;4371881;32;69446;-63
2023/01/24 04:05:12;;;;;;;15.15;8.38;;;;;;;;;;4382041;32;67291;-63
2023/01/24 04:07:33;;;;;;;13.88;7.85;;;;;;;;;;4383403;32;60148;-63
2023/01/24 04:10:20;;;;;;;;;;;;;;;;;;4381801;32;69858;-63
2023/01/24 04:13:09;;;;;;;9.53;5.90;;;;;;;;;;4371506;32;69253;-63
2023/01/24 04:15:56;;;;;;;9.40;5.70;;;;;;;;;;4370737;32;68400;-63
2023/01/24 04:18:44;;;;;;;9.10;5.80;;;;;;;;;;4371287;32;70742;-63
2023/01/24 04:21:31;;;;;;;9.32;5.75;;;;;;;;;;4383511;32;66033;-62
2023/01/24 04:24:18;;;;;;;9.55;6.00;;;;;;;;;;4371315;32;67908;-63
2023/01/24 04:27:05;;;;;;;12.07;6.53;;;;;;;;;;4371607;32;60131;-64
2023/01/24 04:29:49;;;;;;;10.52;6.95;;;;;;;;;;3847497;37;43552;-63
2023/01/24 04:32:37;;;;;;;10.85;6.12;;;;;;;;;;4389039;32;60016;-62
2023/01/24 04:35:25;;;;;;;10.25;6.72;;;;;;;;;;4398372;32;71481;-63
2023/01/24 04:38:13;;;;;;;9.23;5.87;;;;;;;;;;4409460;32;69569;-64
2023/01/24 04:41:01;;;;;;;12.48;7.43;;;;;;;;;;4408702;32;67290;-62
2023/01/24 04:43:48;;;;;;;13.45;7.87;;;;;;;;;;4398619;32;71574;-62
2023/01/24 04:46:35;;;;;;;12.48;8.10;;;;;;;;;;4409611;32;65467;-62
2023/01/24 04:49:22;;;;;;;12.48;8.82;;;;;;;;;;4397798;32;67707;-62
2023/01/24 04:52:11;;;;;;;15.27;8.98;;;;;;;;;;4410848;32;60138;-63
2023/01/24 04:54:59;;;;;;;12.23;6.70;;;;;;;;;;4409267;32;71005;-63
2023/01/24 04:57:46;;;;;;;11.32;7.90;;;;;;;;;;4410760;32;65863;-63
2023/01/24 05:00:33;;;;;;;;;;;;;;;;;;4398325;32;67989;-62
2023/01/24 05:03:19;;;;;;;14.63;8.30;;;;;;;;;;4409696;32;60018;-63
2023/01/24 05:06:06;;;;;;;13.60;8.52;;;;;;;;;;4376701;32;68053;-62
2023/01/24 05:08:55;;;;;;;12.32;7.25;;;;;;;;;;4398729;32;69404;-64
2023/01/24 05:11:45;;;;;;;14.65;8.40;;;;;;;;;;4388429;32;67955;-64
2023/01/24 05:14:32;;;;;;;;;;;;;;;;;;4409272;32;70659;-62
2023/01/24 05:17:18;;;;;;;15.10;9.70;;;;;;;;;;4398738;32;65362;-63
2023/01/24 05:20:07;;;;;;;12.55;8.63;;;;;;;;;;4408974;32;69122;-63
2023/01/24 05:22:56;;;;;;;13.77;8.98;;;;;;;;;;4398373;32;67590;-62
2023/01/24 05:25:44;;;;;;;16.27;9.27;;;;;;;;;;4408716;32;71445;-63
2023/01/24 05:28:31;;;;;;;15.00;8.95;;;;;;;;;;4398074;32;65703;-64
2023/01/24 05:31:18;;;;;;;14.32;9.27;;;;;;;;;;4408995;32;67338;-64
2023/01/24 05:34:05;;;;;;;;;;;;;;;;;;4387230;32;61303;-62
2023/01/24 05:36:51;;;;;;;12.23;9.13;;;;;;;;;;4398188;32;70049;-62
2023/01/24 05:39:39;;;;;;;1.73;1.17;;;;;;;;;;4404384;32;68792;-62
2023/01/24 05:42:25;;;;;;;13.98;8.32;;;;;;;;;;4399806;32;67762;-64
2023/01/24 05:45:13;;;;;;;2.40;1.42;;;;;;;;;;4398387;32;59979;-63
2023/01/24 05:48:00;;;;;;;11.88;7.85;;;;;;;;;;4377216;32;70502;-63
2023/01/24 05:50:47;;;;;;;11.80;8.13;;;;;;;;;;4387571;32;69032;-63
2023/01/24 05:53:36;;;;;;;12.15;6.60;;;;;;;;;;4398492;32;66719;-63
2023/01/24 05:56:24;;;;;;;0.85;0.85;;;;;;;;;;4387757;32;71749;-62
2023/01/24 05:59:13;;;;;;;2.08;0.88;;;;;;;;;;4398211;32;65640;-63
2023/01/24 06:02:00;;;;;;;20.80;12.32;;;;;;;;;;4398451;32;66676;-63
2023/01/24 06:04:46;;;;;;;17.23;11.73;;;;;;;;;;4384631;32;59468;-63
2023/01/24 06:07:33;;;;;;;16.17;10.15;;;;;;;;;;4382823;32;70994;-61
2023/01/24 06:10:20;;;;;;;14.50;9.02;;;;;;;;;;4382656;32;66543;-62
2023/01/24 06:13:07;;;;;;;16.95;9.85;;;;;;;;;;4371787;32;67234;-63
2023/01/24 06:16:01;;;;;;;15.38;9.90;;;;;;;;;;4383196;32;60644;-63
2023/01/24 06:18:48;;;;;;;14.38;9.10;;;;;;;;;;4384267;32;69896;-62
2023/01/24 06:21:52;;;;;;;13.52;9.20;;;;;;;;;;4382949;32;69284;-63
2023/01/24 06:24:40;;;;;;;14.27;8.70;;;;;;;;;;4382774;32;67369;-63
2023/01/24 06:27:28;;;;;;;13.35;7.65;;;;;;;;;;4382416;32;71771;-62
2023/01/24 06:30:16;;;;;;;11.73;7.35;;;;;;;;;;4384004;32;65862;-63
2023/01/24 06:33:21;;;;;;;12.40;8.27;;;;;;;;;;4372412;32;67555;-62
2023/01/24 06:36:34;;;;;;;13.38;8.52;;;;;;;;;;4382858;32;67540;-62
2023/01/24 06:39:21;;;;;;;15.23;8.98;;;;;;;;;;4382607;32;71408;-63
2023/01/24 06:42:08;;;;;;;15.48;8.98;;;;;;;;;;4371288;32;67274;-62
2023/01/24 06:44:55;;;;;;;17.58;9.00;;;;;;;;;;4371982;32;66728;-62
2023/01/24 06:47:43;;;;;;;13.40;9.32;;;;;;;;;;4383115;32;60480;-64
2023/01/24 06:50:32;;;;;;;16.37;10.55;;;;;;;;;;4371085;32;71590;-63
2023/01/24 06:53:18;;;;;;;17.05;11.48;;;;;;;;;;4382245;32;69440;-59
2023/01/24 06:56:05;;;;;;;;;;;;;;;;;;4382706;32;68291;-59
2023/01/24 06:58:51;;;;;;;18.02;10.88;;;;;;;;;;4372577;32;60082;-60
2023/01/24 07:01:38;;;;;;;18.35;11.27;;;;;;;;;;4371669;32;70827;-60
2023/01/24 07:04:25;;;;;;;;;;;;;;;;;;4382724;32;68684;-60
2023/01/24 07:07:11;;;;;;;18.85;11.07;;;;;;;;;;4382662;32;66733;-60
2023/01/24 07:09:58;;;;;;;15.57;10.07;;;;;;;;;;4371609;32;71653;-60
2023/01/24 07:12:45;;;;;;;13.23;9.15;;;;;;;;;;4382428;32;66305;-60
2023/01/24 07:15:33;;;;;;;15.60;9.82;;;;;;;;;;4360728;32;68610;-61
2023/01/24 07:18:21;;;;;;;17.50;11.10;;;;;;;;;;4372448;32;60032;-62
2023/01/24 07:21:08;;;;;;;19.83;12.48;;;;;;;;;;4382311;32;69585;-62
2023/01/24 07:23:57;;;;;;;19.85;12.32;;;;;;;;;;4383769;32;65697;-62
2023/01/24 07:26:44;;;;;;;21.02;13.90;;;;;;;;;;4383450;32;67078;-63
2023/01/24 07:29:30;;;;;;;;;;;;;;;;;;4371123;32;61481;-62
2023/01/24 07:32:16;;;;;;;19.95;13.43;;;;;;;;;;4382469;32;70215;-62
2023/01/24 07:35:05;;;;;;;22.33;15.02;;;;;;;;;;4383093;32;69848;-62
2023/01/24 07:37:51;;;;;;;16.95;9.65;;;;;;;;;;4382470;32;67562;-62
2023/01/24 07:40:38;;;;;;;13.90;9.07;;;;;;;;;;4382422;32;71969;-60
2023/01/24 07:43:25;;;;;;;16.17;9.55;;;;;;;;;;4371231;32;65230;-61
2023/01/24 07:46:12;;;;;;;14.93;8.70;;;;;;;;;;4372320;32;67843;-62
2023/01/24 07:48:59;;;;;;;13.52;8.93;;;;;;;;;;4383505;32;67732;-63
2023/01/24 07:51:48;;;;;;;12.30;7.57;;;;;;;;;;4360203;32;70556;-63
2023/01/24 07:54:34;;;;;;;12.20;7.00;;;;;;;;;;4372342;32;64373;-62
2023/01/24 07:57:21;;;;;;;10.75;6.60;;;;;;;;;;4385643;32;66387;-63
2023/01/24 08:00:08;;;;;;;9.55;5.93;;;;;;;;;;4385029;32;60624;-62
2023/01/24 08:02:58;;;;;;;8.27;5.87;;;;;;;;;;4385708;32;70056;-62
2023/01/24 08:05:45;;;;;;;8.25;5.37;;;;;;;;;;4376256;32;69382;-63
2023/01/24 08:08:31;;;;;;;8.70;5.62;;;;;;;;;;4364878;32;68713;-62
2023/01/24 08:11:19;;;;;;;7.82;5.10;;;;;;;;;;4372521;32;71840;-62
2023/01/24 08:14:05;;;;;;;10.00;5.90;;;;;;;;;;4370857;32;70184;-62
2023/01/24 08:16:52;;;;;;;;;;;;;;;;;;4371135;32;68320;-63
2023/01/24 08:19:39;;;;;;;9.88;5.05;;;;;;;;;;4394845;32;68072;-63
2023/01/24 08:22:26;;;;;;;8.20;5.28;;;;;;;;;;4362961;32;72827;-63
2023/01/24 08:25:13;;;;;;;13.48;6.62;;;;;;;;;;4362827;32;65168;-62
2023/01/24 08:27:59;;;;;;;9.95;7.35;;;;;;;;;;4349977;32;67632;-63
2023/01/24 08:30:46;;;;;;;8.93;5.72;;;;;;;;;;4370969;32;60574;-64
2023/01/24 08:33:37;;;;;;;9.98;6.07;;;;;;;;;;4360783;32;70572;-63
2023/01/24 08:36:24;;;;;;;13.23;8.18;;;;;;;;;;4370235;32;68122;-64
2023/01/24 08:39:11;;;;;;;;;;;;;;;;;;4371145;32;67903;-65
2023/01/24 08:41:57;;;;;;;9.55;5.80;;;;;;;;;;4374210;32;59860;-63
2023/01/24 08:44:44;;;;;;;8.93;6.20;;;;;;;;;;4386673;32;69424;-65
2023/01/24 08:47:30;;;;;;;8.07;6.00;;;;;;;;;;4384073;32;68664;-63
2023/01/24 08:50:19;;;;;;;8.80;6.18;;;;;;;;;;4372789;32;65625;-62
2023/01/24 08:53:05;;;;;;;9.15;5.82;;;;;;;;;;4374849;32;70877;-62
2023/01/24 08:55:52;;;;;;;9.80;6.05;;;;;;;;;;4372017;32;66069;-63
2023/01/24 08:58:40;;;;;;;8.82;5.43;;;;;;;;;;4350171;32;68097;-63
2023/01/24 09:01:27;;;;;;;10.43;5.70;;;;;;;;;;4372470;32;60356;-62
2023/01/24 09:04:14;;;;;;;12.82;5.93;;;;;;;;;;4385931;32;71876;-63
2023/01/24 09:07:00;;;;;;;9.43;5.75;;;;;;;;;;4384117;32;63199;-63
2023/01/24 09:09:47;;;;;;;7.28;5.15;;;;;;;;;;4373940;32;68946;-63
2023/01/24 09:12:33;;;;;;;;;;;;;;;;;;4384170;32;60089;-64
2023/01/24 09:15:19;;;;;;;11.25;6.10;;;;;;;;;;4385102;32;69965;-63
2023/01/24 09:18:06;;;;;;;7.85;5.20;;;;;;;;;;4386890;32;68877;-65
2023/01/24 09:20:53;;;;;;;9.05;5.45;;;;;;;;;;4373804;32;66969;-63
2023/01/24 09:23:40;;;;;;;;;;;;;;;;;;4385105;32;71476;-62
2023/01/24 09:26:26;;;;;;;8.90;5.00;;;;;;;;;;4374486;32;69374;-63
2023/01/24 09:29:13;;;;;;;8.48;5.25;;;;;;;;;;4384039;32;68547;-63
2023/01/24 09:31:59;;;;;;;;;;;;;;;;;;4373784;32;68637;-64
2023/01/24 09:34:47;;;;;;;7.25;5.10;;;;;;;;;;4373125;32;71024;-64
2023/01/24 09:37:34;;;;;;;9.85;5.00;;;;;;;;;;4364606;32;65772;-64
2023/01/24 09:40:25;;;;;;;;;;;;;;;;;;4385467;32;68137;-63
2023/01/24 09:43:42;;;;;;;8.55;4.82;;;;;;;;;;4374511;32;59655;-63
2023/01/24 09:46:39;;;;;;;9.95;4.95;;;;;;;;;;4361196;32;70009;-64
2023/01/24 09:49:42;;;;;;;7.80;5.05;;;;;;;;;;4383263;32;68565;-63
2023/01/24 09:52:37;;;;;;;8.98;4.93;;;;;;;;;;4375776;32;67817;-62
2023/01/24 09:55:34;;;;;;;6.53;4.40;;;;;;;;;;4372974;32;60436;-63
2023/01/24 09:58:39;;;;;;;10.25;5.12;;;;;;;;;;4372477;32;70707;-63
2023/01/24 10:01:26;;;;;;;10.02;4.47;;;;;;;;;;4383427;32;69331;-63
2023/01/24 10:04:29;;;;;;;8.77;5.30;;;;;;;;;;4362107;32;66696;-64
2023/01/24 10:07:28;;;;;;;7.78;4.80;;;;;;;;;;4351441;32;70051;-63
2023/01/24 10:10:30;;;;;;;9.05;4.60;;;;;;;;;;4383228;32;65047;-63
2023/01/24 10:13:51;;;;;;;6.97;4.35;;;;;;;;;;4371713;32;67314;-63
2023/01/24 10:17:07;;;;;;;8.98;4.68;;;;;;;;;;4372180;32;60977;-63
2023/01/24 10:20:06;;;;;;;8.75;5.18;;;;;;;;;;4382954;32;70795;-62
2023/01/24 10:22:56;;;;;;;6.95;4.55;;;;;;;;;;4372543;32;65082;-63
2023/01/24 10:25:49;;;;;;;7.37;4.32;;;;;;;;;;4371512;32;68364;-63
2023/01/24 10:28:38;;;;;;;7.45;4.35;;;;;;;;;;4361673;32;59213;-63
2023/01/24 10:31:31;;;;;;;8.88;4.80;;;;;;;;;;4350526;32;71955;-63
2023/01/24 10:34:46;;;;;;;6.18;4.10;;;;;;;;;;4361734;32;69409;-63
2023/01/24 10:37:38;;;;;;;7.18;4.35;;;;;;;;;;4382772;32;67897;-63
2023/01/24 10:40:25;;;;;;;6.30;4.35;;;;;;;;;;4371170;32;72647;-63
2023/01/24 10:43:12;;;;;;;5.97;4.22;;;;;;;;;;4371429;32;65362;-63
2023/01/24 10:46:40;;;;;;;7.55;4.68;;;;;;;;;;4383514;32;68034;-63
2023/01/24 10:49:35;;;;;;;6.93;4.30;;;;;;;;;;4370956;32;68430;-63
2023/01/24 10:52:23;;;;;;;6.32;3.67;;;;;;;;;;4371062;32;71957;-64
2023/01/24 10:55:34;;;;;;;8.70;4.40;;;;;;;;;;4382542;32;66024;-63
2023/01/24 10:58:26;;;;;;;8.82;4.25;;;;;;;;;;4361689;32;67894;-64
2023/01/24 11:01:20;;;;;;;7.53;4.53;;;;;;;;;;4382669;32;59173;-63
2023/01/24 11:04:42;;;;;;;7.30;4.55;;;;;;;;;;4382833;32;69624;-62
2023/01/24 11:07:40;;;;;;;6.72;4.00;;;;;;;;;;4327446;32;68362;-63
2023/01/24 11:10:31;;;;;;;6.37;3.78;;;;;;;;;;4373024;32;68332;-63
2023/01/24 11:13:39;;;;;;;6.15;3.72;;;;;;;;;;4382455;32;60089;-65
2023/01/24 11:16:42;;;;;;;6.62;3.80;;;;;;;;;;4382111;32;70824;-64
2023/01/24 11:19:39;;;;;;;6.03;3.78;;;;;;;;;;4371608;32;69668;-64
2023/01/24 11:22:34;;;;;;;5.10;3.30;;;;;;;;;;4383277;32;67696;-62
2023/01/24 11:25:21;;;;;;;6.53;3.60;;;;;;;;;;4374315;32;72099;-63
2023/01/24 11:28:29;;;;;;;7.18;3.97;;;;;;;;;;4360194;32;66639;-65
2023/01/24 11:31:29;;;;;;;6.18;4.12;;;;;;;;;;4371472;32;67572;-63
2023/01/24 11:34:45;;;;;;;7.78;4.40;;;;;;;;;;4371770;32;59390;-62
2023/01/24 11:38:09;;;;;;;6.03;4.35;;;;;;;;;;4381544;32;70462;-63
2023/01/24 11:41:05;;;;;;;6.15;3.70;;;;;;;;;;4370549;32;66510;-64
2023/01/24 11:44:13;;;;;;;6.87;4.03;;;;;;;;;;4370529;32;65812;-63
2023/01/24 11:47:25;;;;;;;;;;;;;;;;;;4382421;32;60601;-63
2023/01/24 11:50:36;;;;;;;5.70;3.70;;;;;;;;;;4381154;32;68623;-64
2023/01/24 11:53:28;;;;;;;5.60;4.05;;;;;;;;;;4349561;32;70223;-64
2023/01/24 11:56:29;;;;;;;6.62;4.28;;;;;;;;;;4381758;32;67572;-63
2023/01/24 11:59:38;;;;;;;7.20;4.05;;;;;;;;;;4370921;32;71548;-63
2023/01/24 12:02:33;;;;;;;5.25;3.72;;;;;;;;;;4370600;32;66947;-63
2023/01/24 12:06:05;;;;;;;5.65;3.78;;;;;;;;;;4359987;32;68833;-62
2023/01/24 12:09:11;;;;;;;5.85;3.65;;;;;;;;;;4371038;32;67954;-63
2023/01/24 12:12:09;;;;;;;9.85;4.07;;;;;;;;;;4382901;32;71850;-63
2023/01/24 12:15:05;;;;;;;6.65;4.18;;;;;;;;;;4381788;32;66242;-63
2023/01/24 12:18:01;;;;;;;6.85;3.90;;;;;;;;;;4370427;32;67545;-62
2023/01/24 12:20:53;;;;;;;6.68;4.05;;;;;;;;;;4359885;32;60720;-64
2023/01/24 12:23:46;;;;;;;5.65;3.83;;;;;;;;;;4381587;32;69372;-62
2023/01/24 12:26:45;;;;;;;5.87;3.65;;;;;;;;;;4370259;32;69514;-64
2023/01/24 12:29:41;;;;;;;8.10;4.07;;;;;;;;;;4370680;32;67573;-64
2023/01/24 12:32:47;;;;;;;6.53;3.80;;;;;;;;;;4381745;32;59163;-63
2023/01/24 12:35:37;;;;;;;6.15;3.60;;;;;;;;;;4359410;32;70258;-62
2023/01/24 12:38:45;;;;;;;7.47;4.28;;;;;;;;;;4381811;32;69511;-63
2023/01/24 12:41:33;;;;;;;6.30;3.90;;;;;;;;;;4382889;32;67670;-63
2023/01/24 12:44:32;;;;;;;7.12;4.10;;;;;;;;;;4349996;32;72280;-62
2023/01/24 12:47:28;;;;;;;5.15;3.05;;;;;;;;;;4383014;32;65020;-63
2023/01/24 12:50:34;;;;;;;5.20;3.35;;;;;;;;;;4382680;32;67191;-62
2023/01/24 12:53:29;;;;;;;5.90;3.58;;;;;;;;;;4373212;32;60053;-63
2023/01/24 12:56:59;;;;;;;7.12;3.70;;;;;;;;;;4372620;32;71023;-63
2023/01/24 12:59:46;;;;;;;7.40;4.30;;;;;;;;;;4373020;32;63971;-63
2023/01/24 13:03:06;;;;;;;7.93;4.45;;;;;;;;;;4385443;32;68090;-63
2023/01/24 13:06:33;;;;;;;9.20;4.18;;;;;;;;;;4385345;32;59183;-62
2023/01/24 13:09:57;;;;;;;6.32;3.80;;;;;;;;;;4372551;32;71558;-63
2023/01/24 13:12:45;;;;;;;7.20;3.87;;;;;;;;;;4372253;32;68464;-64
2023/01/24 13:16:10;;;;;;;6.62;3.75;;;;;;;;;;4373305;32;67773;-62
2023/01/24 13:19:15;;;;;;;7.65;4.62;;;;;;;;;;4372253;32;72797;-65
2023/01/24 13:22:29;;;;;;;5.60;3.90;;;;;;;;;;4383905;32;66245;-64
2023/01/24 13:25:28;;;;;;;9.32;4.12;;;;;;;;;;4385311;32;66836;-63
2023/01/24 13:28:50;;;;;;;9.52;3.80;;;;;;;;;;4384559;32;66642;-63
2023/01/24 13:31:46;;;;;;;6.18;3.65;;;;;;;;;;4373025;32;71605;-68
2023/01/24 13:34:36;;;;;;;7.62;3.92;;;;;;;;;;4373258;32;65807;-63
2023/01/24 13:37:32;;;;;;;7.72;4.05;;;;;;;;;;4361826;32;67639;-62
2023/01/24 13:40:23;;;;;;;7.93;3.90;;;;;;;;;;4362056;32;60151;-63
2023/01/24 13:43:47;;;;;;;6.43;3.78;;;;;;;;;;4372944;32;70158;-64
2023/01/24 13:46:45;;;;;;;7.62;4.80;;;;;;;;;;4373120;32;68881;-63
2023/01/24 13:49:39;;;;;;;7.87;3.90;;;;;;;;;;4383379;32;67724;-63
2023/01/24 13:52:32;;;;;;;6.82;4.00;;;;;;;;;;4373252;32;71660;-62
2023/01/24 13:55:29;;;;;;;7.30;4.07;;;;;;;;;;4383318;32;69875;-62
2023/01/24 13:58:22;;;;;;;7.30;4.35;;;;;;;;;;4372630;32;69552;-62
2023/01/24 14:01:15;;;;;;;10.68;4.45;;;;;;;;;;4363622;32;67228;-63
2023/01/24 14:04:03;;;;;;;8.77;4.93;;;;;;;;;;4384946;32;72602;-63
2023/01/24 14:06:50;;;;;;;7.60;4.78;;;;;;;;;;4374175;32;66022;-62
2023/01/24 14:09:37;;;;;;;7.45;4.62;;;;;;;;;;4375250;32;66881;-63
2023/01/24 14:12:24;;;;;;;9.45;4.55;;;;;;;;;;4384860;32;59359;-63
2023/01/24 14:15:12;;;;;;;8.65;5.40;;;;;;;;;;4373738;32;70964;-62
2023/01/24 14:17:58;;;;;;;7.18;4.57;;;;;;;;;;4373945;32;69490;-63
2023/01/24 14:20:46;;;;;;;12.30;5.50;;;;;;;;;;4372601;32;68019;-62
2023/01/24 14:23:33;;;;;;;9.02;5.32;;;;;;;;;;4361439;32;59100;-63
2023/01/24 14:26:23;;;;;;;8.25;4.97;;;;;;;;;;4371791;32;71163;-64
2023/01/24 14:29:16;;;;;;;10.25;5.93;;;;;;;;;;4382360;32;70434;-63
2023/01/24 14:32:06;;;;;;;10.45;5.45;;;;;;;;;;4371778;32;66907;-63
2023/01/24 14:35:14;;;;;;;10.93;5.60;;;;;;;;;;4371677;32;72597;-64
2023/01/24 14:38:16;;;;;;;9.70;5.20;;;;;;;;;;4384070;32;64849;-63
2023/01/24 14:41:03;;;;;;;9.50;5.82;;;;;;;;;;4371629;32;68083;-62
2023/01/24 14:43:51;;;;;;;8.20;5.05;;;;;;;;;;4361026;32;68333;-63
2023/01/24 14:46:38;;;;;;;10.32;5.47;;;;;;;;;;4372426;32;71734;-64
2023/01/24 14:49:36;;;;;;;8.63;4.55;;;;;;;;;;4372362;32;66191;-63
2023/01/24 14:52:26;;;;;;;11.75;5.93;;;;;;;;;;4360617;32;69203;-63
2023/01/24 14:55:34;;;;;;;10.80;5.47;;;;;;;;;;4384130;32;59333;-63
2023/01/24 14:58:26;;;;;;;10.85;6.30;;;;;;;;;;4371281;32;71299;-63
2023/01/24 15:01:34;;;;;;;7.87;5.00;;;;;;;;;;4361016;32;68964;-63
2023/01/24 15:04:45;;;;;;;9.15;5.65;;;;;;;;;;4373644;32;67084;-63
2023/01/24 15:07:32;;;;;;;9.18;5.72;;;;;;;;;;4384282;32;71851;-62
2023/01/24 15:10:39;;;;;;;8.65;5.47;;;;;;;;;;4382554;32;70663;-63
2023/01/24 15:13:34;;;;;;;9.83;5.77;;;;;;;;;;4381194;32;68318;-63
2023/01/24 15:16:26;;;;;;;8.57;5.80;;;;;;;;;;4382062;32;66559;-63
2023/01/24 15:19:20;;;;;;;10.32;5.93;;;;;;;;;;4372314;32;70620;-63
2023/01/24 15:22:21;;;;;;;10.63;6.00;;;;;;;;;;4360490;32;64826;-63
2023/01/24 15:25:27;;;;;;;8.35;5.65;;;;;;;;;;4360719;32;66771;-63
2023/01/24 15:28:29;;;;;;;9.95;5.65;;;;;;;;;;4382169;32;59298;-63
2023/01/24 15:31:32;;;;;;;9.18;5.50;;;;;;;;;;4372223;32;68229;-64
2023/01/24 15:34:30;;;;;;;10.20;5.50;;;;;;;;;;4363451;32;69533;-63
2023/01/24 15:37:23;;;;;;;7.93;5.45;;;;;;;;;;4360778;32;66944;-62
2023/01/24 15:40:19;;;;;;;9.43;5.78;;;;;;;;;;4360970;32;57974;-63
2023/01/24 15:49:42;;;;;;;8.52;5.18;;;;;;;;;;4381577;32;66673;-63
2023/01/24 15:52:31;;;;;;;9.02;4.97;;;;;;;;;;4381808;32;71696;-63
2023/01/24 15:55:26;;;;;;;8.20;5.07;;;;;;;;;;4361801;32;65900;-62
2023/01/24 15:58:14;;;;;;;7.70;5.00;;;;;;;;;;4371445;32;67145;-63
2023/01/24 16:01:05;;;;;;;7.18;4.90;;;;;;;;;;4371778;32;59104;-62
2023/01/24 16:04:02;;;;;;;7.85;4.70;;;;;;;;;;4381421;32;70643;-62
2023/01/24 16:06:51;;;;;;;6.95;4.55;;;;;;;;;;4361280;32;64964;-62
2023/01/24 16:09:40;;;;;;;8.85;4.53;;;;;;;;;;4381684;32;67976;-63
2023/01/24 16:12:30;;;;;;;7.72;4.65;;;;;;;;;;4350317;32;59091;-64
2023/01/24 16:15:22;;;;;;;9.48;4.78;;;;;;;;;;4350208;32;71472;-62
2023/01/24 16:18:14;;;;;;;7.40;4.10;;;;;;;;;;4351371;32;69212;-63
2023/01/24 16:21:05;;;;;;;6.82;4.47;;;;;;;;;;4381143;32;67690;-63
2023/01/24 16:23:52;;;;;;;6.95;4.40;;;;;;;;;;4360240;32;71925;-63
2023/01/24 16:26:43;;;;;;;9.98;4.22;;;;;;;;;;4360916;32;66309;-63
2023/01/24 16:29:34;;;;;;;6.97;4.60;;;;;;;;;;4369845;32;70088;-63
2023/01/24 16:32:30;;;;;;;7.93;4.15;;;;;;;;;;4360707;32;67660;-63
2023/01/24 16:35:22;;;;;;;8.15;4.03;;;;;;;;;;4381496;32;71898;-63
2023/01/24 16:38:17;;;;;;;6.87;4.20;;;;;;;;;;4370092;32;65830;-63
2023/01/24 16:41:04;;;;;;;7.45;4.45;;;;;;;;;;4370322;32;66926;-63
2023/01/24 16:43:52;;;;;;;6.90;4.25;;;;;;;;;;4381208;32;62181;-62
2023/01/24 16:46:38;;;;;;;7.45;4.47;;;;;;;;;;4359643;32;71438;-63
2023/01/24 16:49:28;;;;;;;7.68;4.70;;;;;;;;;;4382992;32;68890;-62
2023/01/24 16:52:16;;;;;;;7.72;4.10;;;;;;;;;;4381345;32;67924;-62
2023/01/24 16:55:08;;;;;;;6.72;4.25;;;;;;;;;;4371559;32;60245;-65
2023/01/24 16:57:56;;;;;;;7.68;4.60;;;;;;;;;;4349605;32;68431;-64
2023/01/24 17:00:44;;;;;;;6.65;4.20;;;;;;;;;;4380757;32;68400;-64
2023/01/24 17:03:32;;;;;;;;;;;;;;;;;;4371121;32;67368;-63
2023/01/24 17:06:29;;;;;;;9.82;4.22;;;;;;;;;;4360788;32;71800;-63
2023/01/24 17:09:22;;;;;;;6.22;4.22;;;;;;;;;;4358687;32;64869;-63
2023/01/24 17:12:15;;;;;;;8.15;4.30;;;;;;;;;;4360071;32;66937;-64
2023/01/24 17:15:08;;;;;;;8.40;4.70;;;;;;;;;;4370911;32;59173;-63
2023/01/24 17:17:58;;;;;;;6.53;3.80;;;;;;;;;;4381148;32;71757;-63
2023/01/24 17:20:50;;;;;;;5.93;3.75;;;;;;;;;;4381336;32;66050;-63
2023/01/24 17:23:38;;;;;;;8.27;4.10;;;;;;;;;;4359796;32;65867;-64
2023/01/24 17:26:26;;;;;;;6.85;3.97;;;;;;;;;;4370917;32;60052;-63
2023/01/24 17:29:18;;;;;;;8.10;4.55;;;;;;;;;;4369996;32;68672;-63
2023/01/24 17:32:07;;;;;;;6.53;3.58;;;;;;;;;;4370726;32;69471;-63
2023/01/24 17:34:58;;;;;;;7.28;3.90;;;;;;;;;;4370692;32;67606;-63
2023/01/24 17:37:46;;;;;;;5.60;3.87;;;;;;;;;;4373074;32;71834;-63
2023/01/24 17:40:33;;;;;;;7.87;3.85;;;;;;;;;;4383915;32;65101;-63
2023/01/24 17:43:25;;;;;;;6.75;4.22;;;;;;;;;;4373699;32;66918;-63
2023/01/24 17:46:14;;;;;;;6.72;4.00;;;;;;;;;;4383808;32;66822;-64
2023/01/24 17:49:04;;;;;;;6.75;4.20;;;;;;;;;;4383565;32;71871;-63
2023/01/24 17:51:56;;;;;;;6.97;4.00;;;;;;;;;;4373464;32;64923;-63
2023/01/24 17:54:42;;;;;;;6.60;3.65;;;;;;;;;;4372977;32;67068;-63
2023/01/24 17:57:34;;;;;;;5.68;3.97;;;;;;;;;;4383723;32;59085;-63
2023/01/24 18:00:22;;;;;;;6.30;3.58;;;;;;;;;;4371911;32;69461;-65
2023/01/24 18:03:11;;;;;;;5.80;3.65;;;;;;;;;;4383549;32;69804;-63